Time;durP1;ratioP1;P1;durP2;ratioP2;P2;SDS_P1;SDS_P2;PMS_P1;PMS_P2;Temp;Humidity;BMP_temperature;BMP_pressure;BME280_temperature;BME280_humidity;BME280_pressure;Samples;Min_cycle;Max_cycle;Signal;HPM_P1;HPM_P2
2023/07/11 00:01:14;;;;;;;;;;;23.90;51.70;;;;;;5055022;28;19925;-57
2023/07/11 00:03:41;;;;;;;;;;;23.90;51.70;;;;;;5037734;28;19943;-58
2023/07/11 00:06:09;;;;;;;;;;;23.90;51.80;;;;;;5037436;28;19921;-57
2023/07/11 00:08:38;;;;;;;;;;;23.90;51.80;;;;;;5038241;28;19927;-56
2023/07/11 00:11:04;;;;;;;;;;;23.90;51.80;;;;;;5037482;28;19921;-57
2023/07/11 00:13:40;;;;;;;;;;;23.90;51.80;;;;;;5037348;28;19924;-58
2023/07/11 00:16:08;;;;;;;;;;;23.90;51.80;;;;;;5037947;28;19925;-57
2023/07/11 00:18:35;;;;;;;;;;;23.90;51.80;;;;;;5037226;28;19921;-58
2023/07/11 00:21:03;;;;;;;;;;;23.90;51.80;;;;;;5037290;28;20028;-57
2023/07/11 00:23:30;;;;;;;;;;;23.90;51.80;;;;;;5037028;28;19920;-58
2023/07/11 00:26:01;;;;;;;;;;;23.90;51.80;;;;;;5037909;28;19921;-58
2023/07/11 00:28:28;;;;;;;;;;;23.90;51.80;;;;;;5037688;28;20020;-58
2023/07/11 00:30:55;;;;;;;;;;;23.90;51.70;;;;;;5036819;28;19921;-57
2023/07/11 00:33:22;;;;;;;;;;;23.90;51.80;;;;;;5055033;28;19931;-57
2023/07/11 00:35:50;;;;;;;;;;;23.90;51.80;;;;;;5036951;28;19921;-57
2023/07/11 00:38:17;;;;;;;;;;;23.90;51.80;;;;;;5054755;28;19921;-55
2023/07/11 00:40:44;;;;;;;;;;;23.90;51.80;;;;;;5020095;28;19925;-57
2023/07/11 00:43:12;;;;;;;;;;;23.90;51.80;;;;;;5054397;28;19921;-57
2023/07/11 00:46:06;;;;;;;;;;;23.80;51.60;;;;;;5036393;28;19940;-56
2023/07/11 00:48:34;;;;;;;;;;;23.90;51.80;;;;;;5002583;28;19925;-57
2023/07/11 00:51:01;;;;;;;;;;;23.80;51.60;;;;;;5036870;28;19921;-56
2023/07/11 00:53:28;;;;;;;;;;;23.90;51.70;;;;;;5037098;28;19921;-57
2023/07/11 00:55:54;;;;;;;;;;;23.90;51.70;;;;;;5036957;28;19928;-57
2023/07/11 00:58:23;;;;;;;;;;;23.80;52.20;;;;;;5036576;28;19956;-58
2023/07/11 01:00:50;;;;;;;;;;;23.80;51.60;;;;;;5037553;28;19928;-55
2023/07/11 01:03:16;;;;;;;;;;;23.80;51.60;;;;;;5036444;28;19921;-57
2023/07/11 01:05:43;;;;;;;;;;;23.80;51.60;;;;;;5037240;28;19924;-56
2023/07/11 01:08:10;;;;;;;;;;;23.80;51.60;;;;;;5054490;28;19924;-56
2023/07/11 01:10:37;;;;;;;;;;;23.80;51.60;;;;;;5019937;28;19975;-57
2023/07/11 01:13:04;;;;;;;;;;;23.80;51.60;;;;;;5039808;28;19971;-57
2023/07/11 01:15:32;;;;;;;;;;;23.80;51.60;;;;;;5040951;28;19920;-56
2023/07/11 01:17:59;;;;;;;;;;;23.80;51.60;;;;;;5040424;28;19927;-57
2023/07/11 01:20:26;;;;;;;;;;;23.80;51.60;;;;;;5040928;28;19921;-57
2023/07/11 01:22:55;;;;;;;;;;;23.80;51.60;;;;;;5040601;28;19925;-56
2023/07/11 01:25:22;;;;;;;;;;;23.80;51.60;;;;;;5040329;28;19921;-57
2023/07/11 01:27:49;;;;;;;;;;;23.80;51.70;;;;;;5058306;28;19925;-57
2023/07/11 01:30:17;;;;;;;;;;;23.80;51.60;;;;;;5040537;28;19920;-57
2023/07/11 01:32:44;;;;;;;;;;;23.80;51.70;;;;;;5058169;28;19928;-56
2023/07/11 01:35:11;;;;;;;;;;;23.80;51.70;;;;;;5039963;28;19952;-56
2023/07/11 01:37:37;;;;;;;;;;;23.80;51.70;;;;;;5057854;28;19925;-55
2023/07/11 01:40:07;;;;;;;;;;;23.80;51.70;;;;;;5040490;28;19921;-57
2023/07/11 01:42:34;;;;;;;;;;;23.80;51.70;;;;;;5040878;28;19921;-56
2023/07/11 01:45:01;;;;;;;;;;;23.80;52.30;;;;;;5039998;28;19927;-57
2023/07/11 01:47:28;;;;;;;;;;;23.80;51.70;;;;;;5057639;28;19928;-57
2023/07/11 01:49:54;;;;;;;;;;;23.80;51.70;;;;;;5040818;28;20289;-57
2023/07/11 01:52:22;;;;;;;;;;;23.80;51.70;;;;;;5040405;28;19920;-57
2023/07/11 01:54:48;;;;;;;;;;;23.80;51.70;;;;;;5039948;28;19928;-56
2023/07/11 01:57:17;;;;;;;;;;;23.80;51.70;;;;;;5039816;28;20027;-58
2023/07/11 01:59:44;;;;;;;;;;;23.80;51.70;;;;;;5023266;28;19932;-57
2023/07/11 02:02:10;;;;;;;;;;;23.80;51.70;;;;;;5040539;28;19925;-57
2023/07/11 02:04:37;;;;;;;;;;;23.80;51.70;;;;;;5040390;28;19984;-57
2023/07/11 02:07:04;;;;;;;;;;;23.70;51.60;;;;;;5039329;28;19921;-57
2023/07/11 02:09:31;;;;;;;;;;;23.70;51.60;;;;;;5040113;28;19974;-57
2023/07/11 02:11:58;;;;;;;;;;;23.70;51.60;;;;;;5039629;28;19921;-58
2023/07/11 02:14:26;;;;;;;;;;;23.80;51.70;;;;;;5039298;28;19921;-57
2023/07/11 02:16:53;;;;;;;;;;;23.80;51.70;;;;;;5040275;28;19921;-57
2023/07/11 02:19:23;;;;;;;;;;;23.70;51.60;;;;;;5039858;28;19971;-57
2023/07/11 02:21:50;;;;;;;;;;;23.70;51.60;;;;;;5039798;28;20022;-57
2023/07/11 02:24:18;;;;;;;;;;;23.80;51.70;;;;;;5057474;28;19920;-57
2023/07/11 02:26:45;;;;;;;;;;;23.70;51.60;;;;;;5039332;28;19920;-57
2023/07/11 02:29:12;;;;;;;;;;;23.70;51.60;;;;;;5039271;28;19927;-57
2023/07/11 02:31:40;;;;;;;;;;;23.70;51.60;;;;;;5039328;28;19921;-55
2023/07/11 02:34:07;;;;;;;;;;;23.70;51.60;;;;;;5039039;28;19925;-57
2023/07/11 02:36:33;;;;;;;;;;;23.70;51.60;;;;;;5039314;28;19970;-58
2023/07/11 02:39:00;;;;;;;;;;;23.70;51.60;;;;;;5022705;28;19927;-57
2023/07/11 02:41:27;;;;;;;;;;;23.70;51.60;;;;;;5039640;28;19928;-56
2023/07/11 02:43:54;;;;;;;;;;;23.70;51.60;;;;;;5039217;28;19931;-56
2023/07/11 02:46:21;;;;;;;;;;;23.70;51.60;;;;;;5057083;28;19921;-57
2023/07/11 02:48:49;;;;;;;;;;;23.70;51.60;;;;;;5038842;28;19924;-57
2023/07/11 02:51:16;;;;;;;;;;;23.70;51.60;;;;;;5039693;28;19920;-56
2023/07/11 02:53:43;;;;;;;;;;;23.70;51.60;;;;;;5039054;28;19921;-56
2023/07/11 02:56:11;;;;;;;;;;;23.70;51.60;;;;;;5039256;28;19920;-58
2023/07/11 02:58:39;;;;;;;;;;;23.70;51.60;;;;;;5039863;28;19920;-58
2023/07/11 03:01:05;;;;;;;;;;;23.70;51.70;;;;;;5039444;28;19967;-60
2023/07/11 03:03:33;;;;;;;;;;;23.60;51.60;;;;;;5039529;28;19925;-58
2023/07/11 03:06:01;;;;;;;;;;;23.60;51.60;;;;;;5056446;28;19921;-58
2023/07/11 03:08:28;;;;;;;;;;;23.70;51.70;;;;;;5038637;28;19921;-59
2023/07/11 03:10:57;;;;;;;;;;;23.60;51.60;;;;;;5055497;28;19928;-58
2023/07/11 03:13:24;;;;;;;;;;;23.60;51.60;;;;;;5038989;28;19925;-58
2023/07/11 03:15:51;;;;;;;;;;;23.70;51.70;;;;;;5038455;28;19927;-58
2023/07/11 03:18:18;;;;;;;;;;;23.60;51.60;;;;;;5056323;28;19920;-58
2023/07/11 03:20:45;;;;;;;;;;;23.60;51.60;;;;;;5021811;28;19921;-58
2023/07/11 03:23:13;;;;;;;;;;;23.60;51.60;;;;;;5038904;28;19921;-58
2023/07/11 03:25:40;;;;;;;;;;;23.60;51.60;;;;;;5038276;28;19928;-58
2023/07/11 03:28:07;;;;;;;;;;;23.60;51.60;;;;;;5038072;28;19943;-58
2023/07/11 03:30:34;;;;;;;;;;;23.60;51.70;;;;;;5038545;28;19925;-58
2023/07/11 03:33:01;;;;;;;;;;;23.60;51.60;;;;;;5038332;28;19921;-58
2023/07/11 03:35:27;;;;;;;;;;;23.60;51.60;;;;;;5055245;28;20035;-58
2023/07/11 03:37:54;;;;;;;;;;;23.60;51.60;;;;;;5038186;28;19925;-58
2023/07/11 03:40:24;;;;;;;;;;;23.60;51.70;;;;;;5055804;28;19928;-58
2023/07/11 03:42:50;;;;;;;;;;;23.60;51.60;;;;;;5038411;28;19932;-58
2023/07/11 03:45:17;;;;;;;;;;;23.60;51.60;;;;;;5038465;28;19921;-58
2023/07/11 03:47:44;;;;;;;;;;;23.60;51.60;;;;;;5055294;28;20019;-58
2023/07/11 03:50:11;;;;;;;;;;;23.60;51.70;;;;;;5055230;28;19920;-57
2023/07/11 03:52:38;;;;;;;;;;;23.60;51.70;;;;;;5037932;28;20011;-59
2023/07/11 03:55:05;;;;;;;;;;;23.60;51.70;;;;;;5038270;28;19932;-58
2023/07/11 03:57:34;;;;;;;;;;;23.60;51.70;;;;;;5037656;28;19925;-58
2023/07/11 04:00:00;;;;;;;;;;;23.60;51.70;;;;;;5037621;28;19975;-58
2023/07/11 04:02:27;;;;;;;;;;;23.60;51.80;;;;;;5037855;28;19928;-58
2023/07/11 04:04:54;;;;;;;;;;;23.60;51.80;;;;;;5037540;28;19925;-57
2023/07/11 04:07:21;;;;;;;;;;;23.60;51.80;;;;;;5037495;28;19925;-58
2023/07/11 04:09:48;;;;;;;;;;;23.60;51.80;;;;;;5037785;28;19928;-58
2023/07/11 04:12:14;;;;;;;;;;;23.50;51.80;;;;;;5037880;28;19925;-58
2023/07/11 04:14:43;;;;;;;;;;;23.60;51.90;;;;;;5054795;28;19920;-58
2023/07/11 04:17:10;;;;;;;;;;;23.60;51.90;;;;;;5037913;28;19924;-58
2023/07/11 04:19:37;;;;;;;;;;;23.60;52.00;;;;;;5037303;28;19986;-58
2023/07/11 04:22:06;;;;;;;;;;;23.50;51.90;;;;;;5037136;28;19921;-58
2023/07/11 04:24:39;;;;;;;;;;;23.60;52.10;;;;;;5055039;28;19927;-58
2023/07/11 04:27:05;;;;;;;;;;;23.50;52.10;;;;;;5038018;28;19927;-58
2023/07/11 04:29:32;;;;;;;;;;;23.60;52.20;;;;;;5020655;28;19925;-58
2023/07/11 04:32:01;;;;;;;;;;;23.50;52.10;;;;;;5037835;28;20019;-57
2023/07/11 04:34:28;;;;;;;;;;;23.50;52.20;;;;;;5037859;28;19947;-57
2023/07/11 04:36:59;;;;;;;;;;;23.50;52.20;;;;;;5037994;28;19929;-58
2023/07/11 04:42:07;;;;;;;;;;;23.50;52.30;;;;;;5036118;28;19921;-57
2023/07/11 04:44:34;;;;;;;;;;;23.50;52.40;;;;;;5037461;28;20101;-58
2023/07/11 04:47:02;;;;;;;;;;;23.50;52.40;;;;;;5036878;28;19921;-57
2023/07/11 04:49:29;;;;;;;;;;;23.50;52.40;;;;;;5037034;28;19921;-57
2023/07/11 04:51:56;;;;;;;;;;;23.50;52.40;;;;;;5054862;28;19920;-58
2023/07/11 04:54:23;;;;;;;;;;;23.50;52.50;;;;;;5054591;28;19921;-57
2023/07/11 04:56:54;;;;;;;;;;;23.50;52.50;;;;;;5037566;28;19921;-57
2023/07/11 04:59:21;;;;;;;;;;;23.50;52.50;;;;;;5037366;28;19924;-58
2023/07/11 05:01:48;;;;;;;;;;;23.50;52.50;;;;;;5054479;28;19967;-57
2023/07/11 05:04:16;;;;;;;;;;;23.50;52.50;;;;;;5054404;28;19924;-56
2023/07/11 05:06:43;;;;;;;;;;;23.50;52.50;;;;;;5054357;28;19932;-56
2023/07/11 05:09:10;;;;;;;;;;;23.40;52.50;;;;;;5054495;28;19920;-54
2023/07/11 05:11:37;;;;;;;;;;;23.50;52.60;;;;;;5036765;28;19920;-58
2023/07/11 05:14:04;;;;;;;;;;;23.50;52.60;;;;;;5036888;28;19921;-58
2023/07/11 05:16:32;;;;;;;;;;;23.50;52.60;;;;;;5037968;28;19921;-59
2023/07/11 05:18:59;;;;;;;;;;;23.50;52.70;;;;;;5054842;28;19921;-58
2023/07/11 05:21:28;;;;;;;;;;;23.50;52.70;;;;;;5036419;28;19952;-58
2023/07/11 05:23:55;;;;;;;;;;;23.50;52.80;;;;;;5054416;28;20062;-58
2023/07/11 05:26:22;;;;;;;;;;;23.50;52.80;;;;;;5036602;28;20011;-58
2023/07/11 05:28:50;;;;;;;;;;;23.50;52.90;;;;;;5036947;28;19944;-58
2023/07/11 05:31:19;;;;;;;;;;;23.50;52.90;;;;;;5036699;28;20011;-58
2023/07/11 05:33:46;;;;;;;;;;;23.50;52.90;;;;;;5055031;28;20267;-58
2023/07/11 05:36:25;;;;;;;;;;;23.50;53.50;;;;;;5037052;28;19924;-57
2023/07/11 05:38:54;;;;;;;;;;;23.50;52.90;;;;;;5054165;28;19943;-58
2023/07/11 05:41:21;;;;;;;;;;;23.50;53.00;;;;;;5036426;28;19921;-58
2023/07/11 05:43:47;;;;;;;;;;;23.50;53.00;;;;;;5036481;28;19921;-59
2023/07/11 05:46:14;;;;;;;;;;;23.50;53.00;;;;;;5037253;28;19920;-58
2023/07/11 05:48:42;;;;;;;;;;;23.50;53.00;;;;;;5037050;28;19921;-57
2023/07/11 05:51:09;;;;;;;;;;;23.50;53.00;;;;;;5053922;28;19928;-58
2023/07/11 05:53:36;;;;;;;;;;;23.50;53.00;;;;;;5038075;28;19920;-57
2023/07/11 05:56:04;;;;;;;;;;;23.50;53.00;;;;;;5036594;28;19928;-58
2023/07/11 05:58:32;;;;;;;;;;;23.50;53.00;;;;;;5038183;28;19939;-58
2023/07/11 06:00:58;;;;;;;;;;;23.50;53.00;;;;;;5057217;28;19921;-59
2023/07/11 06:03:26;;;;;;;;;;;23.50;53.00;;;;;;5039561;28;19936;-55
2023/07/11 06:05:53;;;;;;;;;;;23.50;53.00;;;;;;5037001;28;19920;-58
2023/07/11 06:08:19;;;;;;;;;;;23.50;53.00;;;;;;5022994;28;19928;-57
2023/07/11 06:10:46;;;;;;;;;;;23.50;53.10;;;;;;5039501;28;19928;-59
2023/07/11 06:13:15;;;;;;;;;;;23.50;53.10;;;;;;5039321;28;20027;-57
2023/07/11 06:15:41;;;;;;;;;;;23.50;53.10;;;;;;5039441;28;20092;-58
2023/07/11 06:18:08;;;;;;;;;;;23.50;53.20;;;;;;5039310;28;20022;-58
2023/07/11 06:20:35;;;;;;;;;;;23.40;53.00;;;;;;5037345;28;19927;-58
2023/07/11 06:23:02;;;;;;;;;;;23.40;53.10;;;;;;5039675;28;19928;-58
2023/07/11 06:25:29;;;;;;;;;;;23.40;53.10;;;;;;5037241;28;19920;-57
2023/07/11 06:27:55;;;;;;;;;;;23.40;53.10;;;;;;5056577;28;19929;-57
2023/07/11 06:30:24;;;;;;;;;;;23.40;53.20;;;;;;5039300;28;19921;-58
2023/07/11 06:32:50;;;;;;;;;;;23.40;53.10;;;;;;5039374;28;19921;-57
2023/07/11 06:35:17;;;;;;;;;;;23.40;53.10;;;;;;5039040;28;19932;-57
2023/07/11 06:37:44;;;;;;;;;;;23.40;53.20;;;;;;5057001;28;19931;-58
2023/07/11 06:40:11;;;;;;;;;;;23.40;53.20;;;;;;5038965;28;19928;-58
2023/07/11 06:42:38;;;;;;;;;;;23.40;53.20;;;;;;5039140;28;19921;-58
2023/07/11 06:45:06;;;;;;;;;;;23.40;53.20;;;;;;5038933;28;19921;-58
2023/07/11 06:47:34;;;;;;;;;;;23.40;53.20;;;;;;5056392;28;19925;-57
2023/07/11 06:50:01;;;;;;;;;;;23.40;53.20;;;;;;5038535;28;20023;-57
2023/07/11 06:52:29;;;;;;;;;;;23.40;53.20;;;;;;5039191;28;19925;-58
2023/07/11 06:54:56;;;;;;;;;;;23.40;53.20;;;;;;5039277;28;19925;-58
2023/07/11 06:57:23;;;;;;;;;;;23.40;53.20;;;;;;5038868;28;19921;-59
2023/07/11 06:59:50;;;;;;;;;;;23.40;53.20;;;;;;5038881;28;20023;-59
2023/07/11 07:02:17;;;;;;;;;;;23.40;53.20;;;;;;5038925;28;19928;-58
2023/07/11 07:04:45;;;;;;;;;;;23.40;53.20;;;;;;5038458;28;19928;-56
2023/07/11 07:07:12;;;;;;;;;;;23.50;53.80;;;;;;5039476;28;20011;-61
2023/07/11 07:09:39;;;;;;;;;;;23.50;53.20;;;;;;5037580;28;19920;-60
2023/07/11 07:12:06;;;;;;;;;;;23.50;53.30;;;;;;5039375;28;19921;-59
2023/07/11 07:14:33;;;;;;;;;;;23.50;53.30;;;;;;5038623;28;19932;-60
2023/07/11 07:17:00;;;;;;;;;;;23.50;53.90;;;;;;5038441;28;19928;-60
2023/07/11 07:19:27;;;;;;;;;;;23.50;53.40;;;;;;5034470;28;19971;-60
2023/07/11 07:21:55;;;;;;;;;;;23.50;53.40;;;;;;5035494;28;19921;-59
2023/07/11 07:24:22;;;;;;;;;;;23.50;53.40;;;;;;5038243;28;20012;-62
2023/07/11 07:26:48;;;;;;;;;;;23.50;53.40;;;;;;5038152;28;19931;-60
2023/07/11 07:29:15;;;;;;;;;;;23.50;54.00;;;;;;5037777;28;19925;-58
2023/07/11 07:31:42;;;;;;;;;;;23.50;53.50;;;;;;5037329;28;19921;-60
2023/07/11 07:34:09;;;;;;;;;;;23.50;53.40;;;;;;5037722;28;19932;-59
2023/07/11 07:36:36;;;;;;;;;;;23.50;53.40;;;;;;5037570;28;19932;-59
2023/07/11 07:39:04;;;;;;;;;;;23.50;53.20;;;;;;5037431;28;19921;-60
2023/07/11 07:41:31;;;;;;;;;;;23.50;53.20;;;;;;5036936;28;19921;-59
2023/07/11 07:43:58;;;;;;;;;;;23.60;53.10;;;;;;5037019;28;19927;-61
2023/07/11 07:46:25;;;;;;;;;;;23.60;53.70;;;;;;5037852;28;19920;-60
2023/07/11 07:48:51;;;;;;;;;;;23.60;53.10;;;;;;5037602;28;19974;-59
2023/07/11 07:51:19;;;;;;;;;;;23.60;53.10;;;;;;5033254;28;19945;-60
2023/07/11 07:53:46;;;;;;;;;;;23.60;53.10;;;;;;5055135;28;19921;-60
2023/07/11 07:56:14;;;;;;;;;;;23.60;53.00;;;;;;5054186;28;19944;-60
2023/07/11 07:58:41;;;;;;;;;;;23.60;53.00;;;;;;5037412;28;19974;-61
2023/07/11 08:01:08;;;;;;;;;;;23.60;53.00;;;;;;5037419;28;19927;-59
2023/07/11 08:03:36;;;;;;;;;;;23.60;53.00;;;;;;5054577;28;19920;-59
2023/07/11 08:06:02;;;;;;;;;;;23.60;53.00;;;;;;5036749;28;19921;-59
2023/07/11 08:08:29;;;;;;;;;;;23.60;53.00;;;;;;5036736;28;19927;-59
2023/07/11 08:10:56;;;;;;;;;;;23.70;53.10;;;;;;5036715;28;19982;-58
2023/07/11 08:13:24;;;;;;;;;;;23.70;53.00;;;;;;5036603;28;19939;-58
2023/07/11 08:15:51;;;;;;;;;;;23.70;53.00;;;;;;5034627;28;19921;-60
2023/07/11 08:18:18;;;;;;;;;;;23.70;52.90;;;;;;5036352;28;19959;-59
2023/07/11 08:20:45;;;;;;;;;;;23.70;52.80;;;;;;5054385;28;19931;-59
2023/07/11 08:23:11;;;;;;;;;;;23.70;52.70;;;;;;5037009;28;19927;-59
2023/07/11 08:25:40;;;;;;;;;;;23.70;52.70;;;;;;5054426;28;19921;-59
2023/07/11 08:28:06;;;;;;;;;;;23.80;52.80;;;;;;5036377;28;19975;-58
2023/07/11 08:30:36;;;;;;;;;;;23.80;52.70;;;;;;5036767;28;19925;-59
2023/07/11 08:33:05;;;;;;;;;;;23.80;52.70;;;;;;5036583;28;22605;-60
2023/07/11 08:35:32;;;;;;;;;;;23.80;52.80;;;;;;5036372;28;20370;-58
2023/07/11 08:37:59;;;;;;;;;;;23.80;52.70;;;;;;5036611;28;19925;-58
2023/07/11 08:40:28;;;;;;;;;;;23.80;52.70;;;;;;5036211;28;19924;-58
2023/07/11 08:42:55;;;;;;;;;;;23.80;52.70;;;;;;5036691;28;19929;-59
2023/07/11 08:45:22;;;;;;;;;;;23.80;52.80;;;;;;5036039;28;19921;-59
2023/07/11 08:47:53;;;;;;;;;;;23.80;52.80;;;;;;5035741;28;19925;-60
2023/07/11 08:50:21;;;;;;;;;;;23.90;52.90;;;;;;5054215;28;19966;-60
2023/07/11 08:52:49;;;;;;;;;;;23.90;53.00;;;;;;5053751;28;19944;-59
2023/07/11 08:55:17;;;;;;;;;;;23.90;52.90;;;;;;5035999;28;19921;-59
2023/07/11 08:57:45;;;;;;;;;;;23.90;52.60;;;;;;5033610;28;19950;-59
2023/07/11 09:00:14;;;;;;;;;;;23.90;52.50;;;;;;5036412;28;19920;-58
2023/07/11 09:02:41;;;;;;;;;;;24.00;52.50;;;;;;5053526;28;19987;-60
2023/07/11 09:05:11;;;;;;;;;;;24.00;52.20;;;;;;5036297;28;19920;-60
2023/07/11 09:07:39;;;;;;;;;;;24.00;52.20;;;;;;5035834;28;19948;-56
2023/07/11 09:10:14;;;;;;;;;;;24.00;52.20;;;;;;5035315;28;20015;-58
2023/07/11 09:12:44;;;;;;;;;;;24.00;52.20;;;;;;5036484;28;19920;-59
2023/07/11 09:15:14;;;;;;;;;;;24.00;52.30;;;;;;5033240;28;19975;-58
2023/07/11 09:17:47;;;;;;;;;;;24.00;52.30;;;;;;5015703;28;19921;-60
2023/07/11 09:20:19;;;;;;;;;;;24.00;52.30;;;;;;5015675;28;19975;-60
2023/07/11 09:22:47;;;;;;;;;;;24.10;52.40;;;;;;5016521;28;19924;-59
2023/07/11 09:25:15;;;;;;;;;;;24.10;52.20;;;;;;5015614;28;19979;-58
2023/07/11 09:27:44;;;;;;;;;;;24.10;52.20;;;;;;5033440;28;19921;-59
2023/07/11 09:30:12;;;;;;;;;;;24.10;52.20;;;;;;5015913;28;19921;-59
2023/07/11 09:32:39;;;;;;;;;;;24.10;52.20;;;;;;5016810;28;19925;-58
2023/07/11 09:35:11;;;;;;;;;;;24.10;52.10;;;;;;5020218;28;19928;-58
2023/07/11 09:37:42;;;;;;;;;;;24.10;52.10;;;;;;5019948;28;19928;-58
2023/07/11 09:40:10;;;;;;;;;;;24.20;52.10;;;;;;5037016;28;19921;-57
2023/07/11 09:42:41;;;;;;;;;;;24.20;52.00;;;;;;5020261;28;19960;-60
2023/07/11 09:45:10;;;;;;;;;;;24.20;52.00;;;;;;5019679;28;19928;-59
2023/07/11 09:47:36;;;;;;;;;;;24.20;52.00;;;;;;5020041;28;19982;-59
2023/07/11 09:50:19;;;;;;;;;;;24.20;51.90;;;;;;5035177;28;19975;-59
2023/07/11 09:52:48;;;;;;;;;;;24.30;51.90;;;;;;5037037;28;19921;-58
2023/07/11 09:55:23;;;;;;;;;;;24.30;51.90;;;;;;5019182;28;19928;-58
2023/07/11 09:57:50;;;;;;;;;;;24.30;51.80;;;;;;5019286;28;19925;-58
2023/07/11 10:00:17;;;;;;;;;;;24.30;51.60;;;;;;5036920;28;19944;-58
2023/07/11 10:02:45;;;;;;;;;;;24.30;51.30;;;;;;5019194;28;20275;-58
2023/07/11 10:05:14;;;;;;;;;;;24.30;51.20;;;;;;5019865;28;19927;-59
2023/07/11 10:07:42;;;;;;;;;;;24.30;51.10;;;;;;5018994;28;19929;-58
2023/07/11 10:10:13;;;;;;;;;;;24.30;50.90;;;;;;5035445;28;19929;-58
2023/07/11 10:12:42;;;;;;;;;;;24.30;50.80;;;;;;5018972;28;19959;-60
2023/07/11 10:15:13;;;;;;;;;;;24.40;50.60;;;;;;5019284;28;20045;-59
2023/07/11 10:17:41;;;;;;;;;;;24.30;50.60;;;;;;5018833;28;19925;-59
2023/07/11 10:20:15;;;;;;;;;;;24.40;50.50;;;;;;5018616;28;19921;-58
2023/07/11 10:22:42;;;;;;;;;;;24.40;50.40;;;;;;5018554;28;19976;-60
2023/07/11 10:25:17;;;;;;;;;;;24.40;50.40;;;;;;5019407;28;19994;-60
2023/07/11 10:27:45;;;;;;;;;;;24.40;50.40;;;;;;5018885;28;19928;-59
2023/07/11 10:30:15;;;;;;;;;;;24.40;50.40;;;;;;5033940;28;20009;-59
2023/07/11 10:32:43;;;;;;;;;;;24.40;50.40;;;;;;5038251;28;19921;-59
2023/07/11 10:35:10;;;;;;;;;;;24.40;50.30;;;;;;5038320;28;19924;-59
2023/07/11 10:37:39;;;;;;;;;;;24.40;50.30;;;;;;5038302;28;19925;-59
2023/07/11 10:40:09;;;;;;;;;;;24.50;50.10;;;;;;5038097;28;19964;-58
2023/07/11 10:42:38;;;;;;;;;;;24.50;50.00;;;;;;5038788;28;19928;-59
2023/07/11 10:45:07;;;;;;;;;;;24.50;49.80;;;;;;5037306;28;19928;-58
2023/07/11 10:47:35;;;;;;;;;;;24.50;49.80;;;;;;5037770;28;19979;-59
2023/07/11 10:50:06;;;;;;;;;;;24.50;49.70;;;;;;5038499;28;19920;-59
2023/07/11 10:52:33;;;;;;;;;;;24.50;49.70;;;;;;5038814;28;19925;-59
2023/07/11 10:55:01;;;;;;;;;;;24.50;49.80;;;;;;5055835;28;19921;-59
2023/07/11 10:57:32;;;;;;;;;;;24.50;49.70;;;;;;5037960;28;19921;-59
2023/07/11 11:00:00;;;;;;;;;;;24.50;50.00;;;;;;5038532;28;19927;-59
2023/07/11 11:02:29;;;;;;;;;;;24.50;50.00;;;;;;5037649;28;19928;-59
2023/07/11 11:05:00;;;;;;;;;;;24.50;50.00;;;;;;5037741;28;19924;-59
2023/07/11 11:07:27;;;;;;;;;;;24.50;50.00;;;;;;5037799;28;19992;-59
2023/07/11 11:09:55;;;;;;;;;;;24.60;49.90;;;;;;5037505;28;20023;-59
2023/07/11 11:12:25;;;;;;;;;;;24.60;49.90;;;;;;5038376;28;19974;-59
2023/07/11 11:14:53;;;;;;;;;;;24.60;49.90;;;;;;5053156;28;19967;-59
2023/07/11 11:17:31;;;;;;;;;;;24.60;50.10;;;;;;5055487;28;19921;-60
2023/07/11 11:20:01;;;;;;;;;;;24.60;50.10;;;;;;5038048;28;20039;-59
2023/07/11 11:22:30;;;;;;;;;;;24.60;50.00;;;;;;5037910;28;19920;-58
2023/07/11 11:24:59;;;;;;;;;;;24.60;50.20;;;;;;5055472;28;19925;-60
2023/07/11 11:27:34;;;;;;;;;;;24.60;50.00;;;;;;5037755;28;20067;-59
2023/07/11 11:30:03;;;;;;;;;;;24.60;49.90;;;;;;5038019;28;19925;-60
2023/07/11 11:32:34;;;;;;;;;;;24.70;49.50;;;;;;5054986;28;19978;-59
2023/07/11 11:35:08;;;;;;;;;;;24.70;49.40;;;;;;5037168;28;19936;-58
2023/07/11 11:37:37;;;;;;;;;;;24.70;49.60;;;;;;5035018;28;19921;-57
2023/07/11 11:40:05;;;;;;;;;;;24.80;50.20;;;;;;5036917;28;19932;-58
2023/07/11 11:42:33;;;;;;;;;;;24.80;49.60;;;;;;5037667;28;20019;-61
2023/07/11 11:45:00;;;;;;;;;;;24.80;49.80;;;;;;5034659;28;19921;-58
2023/07/11 11:47:27;;;;;;;;;;;24.90;49.50;;;;;;5036814;28;19921;-59
2023/07/11 11:49:55;;;;;;;;;;;24.90;49.60;;;;;;5036835;28;19928;-61
2023/07/11 11:52:22;;;;;;;;;;;24.90;49.40;;;;;;5036874;28;19924;-59
2023/07/11 11:54:49;;;;;;;;;;;24.90;49.70;;;;;;5033219;28;19924;-58
2023/07/11 11:57:18;;;;;;;;;;;24.90;49.60;;;;;;5036137;28;19921;-57
2023/07/11 11:59:45;;;;;;;;;;;25.00;49.80;;;;;;5034662;28;19978;-58
2023/07/11 12:02:12;;;;;;;;;;;25.00;49.90;;;;;;5037162;28;19932;-59
2023/07/11 12:04:57;;;;;;;;;;;25.00;50.00;;;;;;5027188;28;19933;-58
2023/07/11 12:07:26;;;;;;;;;;;25.00;50.00;;;;;;5029459;28;19950;-58
2023/07/11 12:10:12;;;;;;;;;;;25.10;50.20;;;;;;5052405;28;19925;-58
2023/07/11 12:12:56;;;;;;;;;;;25.00;50.20;;;;;;5053603;28;19952;-59
2023/07/11 12:15:24;;;;;;;;;;;25.10;50.20;;;;;;5055950;28;19920;-59
2023/07/11 12:17:50;;;;;;;;;;;25.10;50.30;;;;;;5074038;28;19920;-58
2023/07/11 12:20:20;;;;;;;;;;;25.10;50.30;;;;;;5047716;28;19971;-58
2023/07/11 12:23:05;;;;;;;;;;;25.10;50.30;;;;;;5015888;28;19921;-59
2023/07/11 12:25:34;;;;;;;;;;;25.10;50.30;;;;;;5034609;28;19920;-59
2023/07/11 12:28:01;;;;;;;;;;;25.10;50.30;;;;;;5062322;28;20401;-58
2023/07/11 12:30:28;;;;;;;;;;;25.10;50.20;;;;;;5023861;28;19960;-59
2023/07/11 12:32:55;;;;;;;;;;;25.10;50.10;;;;;;5034164;28;19948;-59
2023/07/11 12:35:22;;;;;;;;;;;25.10;50.10;;;;;;5020950;28;20390;-59
2023/07/11 12:38:00;;;;;;;;;;;25.10;50.00;;;;;;5036724;28;19921;-57
2023/07/11 12:40:28;;;;;;;;;;;25.20;50.10;;;;;;5032593;28;19921;-58
2023/07/11 12:42:57;;;;;;;;;;;25.20;49.90;;;;;;5035589;28;20035;-58
2023/07/11 12:45:24;;;;;;;;;;;25.10;49.90;;;;;;5054347;28;19947;-58
2023/07/11 12:47:58;;;;;;;;;;;25.20;49.90;;;;;;5034335;28;19928;-58
2023/07/11 12:50:27;;;;;;;;;;;25.20;50.00;;;;;;5040565;28;19920;-59
2023/07/11 12:52:58;;;;;;;;;;;25.20;49.80;;;;;;5043202;28;19929;-58
2023/07/11 12:55:25;;;;;;;;;;;25.20;49.80;;;;;;5016237;28;19921;-58
2023/07/11 12:57:52;;;;;;;;;;;25.20;49.80;;;;;;5032527;28;19925;-58
2023/07/11 13:00:21;;;;;;;;;;;25.20;49.90;;;;;;5033488;28;19921;-58
2023/07/11 13:02:49;;;;;;;;;;;25.20;49.80;;;;;;5041078;28;19921;-58
2023/07/11 13:05:16;;;;;;;;;;;25.20;49.80;;;;;;5036079;28;20000;-57
2023/07/11 13:07:44;;;;;;;;;;;25.20;49.70;;;;;;5036509;28;19928;-57
2023/07/11 13:10:17;;;;;;;;;;;25.30;50.00;;;;;;5039886;28;19920;-58
2023/07/11 13:12:44;;;;;;;;;;;25.30;50.00;;;;;;5043890;28;19964;-57
2023/07/11 13:15:12;;;;;;;;;;;25.30;50.10;;;;;;5034833;28;19921;-58
2023/07/11 13:17:40;;;;;;;;;;;25.30;50.00;;;;;;5020367;28;19928;-58
2023/07/11 13:20:09;;;;;;;;;;;25.30;50.00;;;;;;5019975;28;19921;-58
2023/07/11 13:22:36;;;;;;;;;;;25.30;50.00;;;;;;5020638;28;19944;-58
2023/07/11 13:25:02;;;;;;;;;;;25.30;49.90;;;;;;5026056;28;19932;-59
2023/07/11 13:27:29;;;;;;;;;;;25.30;49.80;;;;;;5036491;28;19921;-58
2023/07/11 13:29:56;;;;;;;;;;;25.30;49.80;;;;;;5057530;28;19928;-57
2023/07/11 13:32:24;;;;;;;;;;;25.30;49.70;;;;;;5037970;28;19920;-59
2023/07/11 13:34:53;;;;;;;;;;;25.30;49.60;;;;;;5040368;28;19921;-58
2023/07/11 13:37:22;;;;;;;;;;;25.40;49.60;;;;;;5037959;28;19928;-57
2023/07/11 13:39:48;;;;;;;;;;;25.40;49.60;;;;;;5037348;28;19920;-59
2023/07/11 13:42:17;;;;;;;;;;;25.40;49.60;;;;;;5037145;28;19943;-59
2023/07/11 13:44:45;;;;;;;;;;;25.40;49.60;;;;;;5037907;28;19940;-59
2023/07/11 13:47:13;;;;;;;;;;;25.40;49.50;;;;;;5028716;28;19996;-58
2023/07/11 13:49:42;;;;;;;;;;;25.40;49.60;;;;;;5037165;28;19921;-58
2023/07/11 13:52:18;;;;;;;;;;;25.40;49.50;;;;;;5038320;28;19921;-59
2023/07/11 13:54:50;;;;;;;;;;;25.40;49.50;;;;;;5039003;28;20019;-59
2023/07/11 13:57:17;;;;;;;;;;;25.40;49.50;;;;;;5039091;28;20000;-57
2023/07/11 13:59:44;;;;;;;;;;;25.40;49.40;;;;;;5039136;28;19920;-58
2023/07/11 14:02:13;;;;;;;;;;;25.40;49.40;;;;;;5039458;28;19921;-58
2023/07/11 14:04:40;;;;;;;;;;;25.40;49.30;;;;;;5028723;28;20001;-56
2023/07/11 14:07:08;;;;;;;;;;;25.40;49.30;;;;;;5023620;28;19921;-57
2023/07/11 14:09:36;;;;;;;;;;;25.40;49.30;;;;;;5020341;28;19925;-56
2023/07/11 14:12:03;;;;;;;;;;;25.40;49.30;;;;;;5020155;28;19921;-57
2023/07/11 14:14:30;;;;;;;;;;;25.40;49.30;;;;;;5019920;28;19928;-56
2023/07/11 14:16:57;;;;;;;;;;;25.40;49.40;;;;;;5021554;28;19991;-58
2023/07/11 14:19:25;;;;;;;;;;;25.40;49.50;;;;;;5019668;28;19921;-58
2023/07/11 14:21:52;;;;;;;;;;;25.40;49.50;;;;;;5036262;28;19928;-59
2023/07/11 14:24:18;;;;;;;;;;;25.40;49.60;;;;;;5019598;28;19979;-59